createdAt,value
2018-09-21T00:00:26.608Z,2.50
2018-09-21T00:01:26.585Z,2.60
2018-09-21T00:02:26.511Z,2.30
2018-09-21T00:03:26.461Z,2.50
2018-09-21T00:04:26.415Z,2.40
2018-09-21T00:05:26.370Z,2.60
2018-09-21T00:06:26.347Z,2.50
2018-09-21T00:07:26.277Z,2.50
2018-09-21T00:08:26.232Z,2.50
2018-09-21T00:09:26.211Z,2.40
2018-09-21T00:10:26.132Z,2.60
2018-09-21T00:11:26.111Z,2.50
2018-09-21T00:12:26.039Z,2.70
2018-09-21T00:13:25.991Z,2.30
2018-09-21T00:14:25.943Z,2.90
2018-09-21T00:15:25.904Z,2.50
2018-09-21T00:16:25.880Z,2.40
2018-09-21T00:17:25.804Z,2.50
2018-09-21T00:18:25.767Z,2.70
2018-09-21T00:19:25.712Z,2.70
2018-09-21T00:20:25.664Z,2.20
2018-09-21T00:21:25.642Z,2.60
2018-09-21T00:22:25.571Z,2.50
2018-09-21T00:23:25.525Z,2.60
2018-09-21T00:24:25.478Z,2.60
2018-09-21T00:25:25.432Z,2.60
2018-09-21T00:26:25.405Z,2.50
2018-09-21T00:27:25.339Z,2.50
2018-09-21T00:28:25.290Z,2.40
2018-09-21T00:29:25.249Z,2.50
2018-09-21T00:30:25.206Z,2.70
2018-09-21T00:31:25.172Z,2.30
2018-09-21T00:32:25.105Z,2.40
2018-09-21T00:33:25.051Z,2.90
2018-09-21T00:34:25.010Z,2.30
2018-09-21T00:35:32.111Z,2.30
2018-09-21T00:36:24.937Z,2.60
2018-09-21T00:37:24.867Z,2.40
2018-09-21T00:38:24.824Z,2.70
2018-09-21T00:39:24.775Z,2.40
2018-09-21T00:40:24.743Z,2.30
2018-09-21T00:41:24.705Z,2.50
2018-09-21T00:42:24.633Z,2.40
2018-09-21T00:43:24.585Z,2.30
2018-09-21T00:44:24.542Z,2.30
2018-09-21T00:45:24.489Z,2.50
2018-09-21T00:46:24.465Z,2.60
2018-09-21T00:47:24.405Z,2.50
2018-09-21T00:48:24.361Z,2.70
2018-09-21T00:49:24.301Z,2.30
2018-09-21T00:50:24.254Z,2.40
2018-09-21T00:51:24.230Z,2.40
2018-09-21T00:52:24.160Z,2.50
2018-09-21T00:53:24.113Z,2.20
2018-09-21T00:54:24.066Z,2.60
2018-09-21T00:55:24.022Z,2.40
2018-09-21T00:56:24.011Z,2.40
2018-09-21T00:57:23.951Z,2.40
2018-09-21T00:58:23.877Z,2.70
2018-09-21T00:59:23.835Z,2.70
2018-09-21T01:00:23.803Z,2.50
2018-09-21T01:01:23.746Z,2.40
2018-09-21T01:02:23.719Z,2.50
2018-09-21T01:03:23.640Z,2.50
2018-09-21T01:04:23.596Z,2.70
2018-09-21T01:05:23.554Z,2.60
2018-09-21T01:06:23.502Z,2.80
2018-09-21T01:07:23.482Z,2.70
2018-09-21T01:08:23.412Z,2.50
2018-09-21T01:09:23.381Z,2.70
2018-09-21T01:10:23.324Z,2.60
2018-09-21T01:11:23.269Z,2.60
2018-09-21T01:12:23.248Z,2.50
2018-09-21T01:13:23.181Z,2.50
2018-09-21T01:14:23.149Z,2.40
2018-09-21T01:15:23.085Z,2.80
2018-09-21T01:16:23.031Z,2.50
2018-09-21T01:17:23.034Z,2.60
2018-09-21T01:18:22.935Z,2.80
2018-09-21T01:19:22.888Z,2.70
2018-09-21T01:20:22.845Z,2.50
2018-09-21T01:21:22.796Z,2.50
2018-09-21T01:22:22.770Z,2.90
2018-09-21T01:23:22.702Z,2.50
2018-09-21T01:24:22.665Z,2.40
2018-09-21T01:25:22.606Z,2.60
2018-09-21T01:26:22.558Z,2.80
2018-09-21T01:27:22.575Z,2.50
2018-09-21T01:28:22.468Z,2.70
2018-09-21T01:29:22.425Z,2.90
2018-09-21T01:30:22.370Z,2.90
2018-09-21T01:31:22.325Z,2.80
2018-09-21T01:32:22.303Z,2.60
2018-09-21T01:33:22.231Z,2.60
2018-09-21T01:34:22.199Z,2.80
2018-09-21T01:35:22.140Z,2.60
2018-09-21T01:36:22.090Z,3.00
2018-09-21T01:37:22.065Z,2.70
2018-09-21T01:38:22.003Z,2.70
2018-09-21T01:39:21.951Z,3.00
2018-09-21T01:40:21.927Z,2.80
2018-09-21T01:41:21.867Z,3.00
2018-09-21T01:42:21.843Z,2.80
2018-09-21T01:43:21.757Z,3.00
2018-09-21T01:44:21.718Z,2.60
2018-09-21T01:45:21.667Z,2.60
2018-09-21T01:46:21.620Z,2.70
2018-09-21T01:47:21.608Z,3.00
2018-09-21T01:48:21.527Z,3.00
2018-09-21T01:49:21.480Z,2.60
2018-09-21T01:50:21.463Z,2.80
2018-09-21T01:51:21.379Z,3.00
2018-09-21T01:52:21.357Z,2.70
2018-09-21T01:53:21.291Z,2.80
2018-09-21T01:54:21.243Z,2.90
2018-09-21T01:55:21.192Z,2.70
2018-09-21T01:56:21.147Z,3.10
2018-09-21T01:57:21.140Z,2.90
2018-09-21T01:58:21.072Z,2.70
2018-09-21T01:59:21.005Z,3.20
2018-09-21T02:00:20.962Z,3.10
2018-09-21T02:01:20.910Z,2.80
2018-09-21T02:02:20.885Z,3.20
2018-09-21T02:03:20.819Z,3.20
2018-09-21T02:04:20.771Z,2.80
2018-09-21T02:05:20.721Z,2.90
2018-09-21T02:06:20.675Z,3.30
2018-09-21T02:07:20.701Z,3.20
2018-09-21T02:08:20.584Z,2.90
2018-09-21T02:09:20.531Z,3.20
2018-09-21T02:10:20.507Z,2.90
2018-09-21T02:11:20.449Z,3.30
2018-09-21T02:12:20.416Z,3.30
2018-09-21T02:13:20.345Z,3.00
2018-09-21T02:14:20.301Z,3.00
2018-09-21T02:15:20.250Z,2.90
2018-09-21T02:16:20.207Z,3.00
2018-09-21T02:17:20.185Z,3.40
2018-09-21T02:18:20.109Z,3.60
2018-09-21T02:19:20.077Z,3.00
2018-09-21T02:20:20.017Z,3.20
2018-09-21T02:21:19.966Z,3.10
2018-09-21T02:22:19.976Z,2.90
2018-09-21T02:23:19.889Z,3.60
2018-09-21T02:24:19.827Z,3.30
2018-09-21T02:25:19.789Z,3.20
2018-09-21T02:26:19.734Z,3.40
2018-09-21T02:27:19.687Z,3.40
2018-09-21T02:28:19.669Z,3.30
2018-09-21T02:29:19.591Z,3.30
2018-09-21T02:30:19.576Z,3.20
2018-09-21T02:31:19.501Z,3.30
2018-09-21T02:32:19.449Z,3.20
2018-09-21T02:33:19.436Z,3.10
2018-09-21T02:34:19.358Z,3.30
2018-09-21T02:35:19.308Z,3.10
2018-09-21T02:36:19.263Z,2.90
2018-09-21T02:37:19.223Z,2.90
2018-09-21T02:38:19.190Z,3.30
2018-09-21T02:39:19.118Z,3.20
2018-09-21T02:40:19.075Z,2.90
2018-09-21T02:41:19.080Z,3.10
2018-09-21T02:42:18.974Z,3.10
2018-09-21T02:43:18.958Z,3.30
2018-09-21T02:44:18.885Z,3.20
2018-09-21T02:45:18.839Z,3.40
2018-09-21T02:46:18.788Z,3.30
2018-09-21T02:47:18.776Z,3.30
2018-09-21T02:48:18.718Z,3.50
2018-09-21T02:49:18.692Z,3.40
2018-09-21T02:50:18.602Z,3.30
2018-09-21T02:51:18.551Z,3.00
2018-09-21T02:52:18.507Z,3.70
2018-09-21T02:53:18.485Z,3.80
2018-09-21T02:54:18.415Z,3.30
2018-09-21T02:55:18.362Z,3.30
2018-09-21T02:56:18.321Z,3.50
2018-09-21T02:57:18.272Z,3.40
2018-09-21T02:58:18.250Z,3.60
2018-09-21T02:59:18.196Z,3.40
2018-09-21T03:00:18.215Z,3.40
2018-09-21T03:01:18.086Z,3.40
2018-09-21T03:02:18.048Z,3.40
2018-09-21T03:03:18.013Z,3.70
2018-09-21T03:04:17.948Z,3.80
2018-09-21T03:05:17.916Z,3.90
2018-09-21T03:06:17.856Z,3.40
2018-09-21T03:07:17.797Z,3.60
2018-09-21T03:08:17.785Z,3.50
2018-09-21T03:09:17.707Z,3.70
2018-09-21T03:10:17.661Z,3.50
2018-09-21T03:11:17.624Z,3.60
2018-09-21T03:12:17.572Z,3.60
2018-09-21T03:13:17.580Z,3.60
2018-09-21T03:14:17.465Z,3.80
2018-09-21T03:15:17.423Z,3.60
2018-09-21T03:16:17.373Z,3.70
2018-09-21T03:17:17.331Z,3.90
2018-09-21T03:18:17.316Z,3.80
2018-09-21T03:19:17.238Z,3.60
2018-09-21T03:20:17.188Z,3.70
2018-09-21T03:21:17.149Z,4.00
2018-09-21T03:22:17.090Z,3.90
2018-09-21T03:23:17.068Z,3.60
2018-09-21T03:24:16.997Z,3.40
2018-09-21T03:25:16.950Z,3.70
2018-09-21T03:26:16.904Z,4.00
2018-09-21T03:27:16.877Z,3.60
2018-09-21T03:28:16.833Z,4.30
2018-09-21T03:29:16.764Z,3.70
2018-09-21T03:30:16.716Z,3.90
2018-09-21T03:31:16.668Z,3.90
2018-09-21T03:32:16.621Z,3.60
2018-09-21T03:33:16.593Z,3.50
2018-09-21T03:34:16.523Z,4.10
2018-09-21T03:35:16.527Z,3.80
2018-09-21T03:36:16.433Z,3.60
2018-09-21T03:37:16.385Z,4.00
2018-09-21T03:38:16.372Z,3.70
2018-09-21T03:39:16.291Z,3.90
2018-09-21T03:40:16.255Z,3.80
2018-09-21T03:41:16.224Z,4.00
2018-09-21T03:42:16.146Z,4.00
2018-09-21T03:43:16.125Z,3.80
2018-09-21T03:44:16.066Z,4.20
2018-09-21T03:45:16.014Z,3.90
2018-09-21T03:46:15.962Z,3.90
2018-09-21T03:47:15.938Z,4.00
2018-09-21T03:48:15.888Z,4.20
2018-09-21T03:49:15.821Z,4.10
2018-09-21T03:50:15.781Z,4.20
2018-09-21T03:51:15.725Z,4.00
2018-09-21T03:52:15.705Z,4.20
2018-09-21T03:53:15.634Z,4.10
2018-09-21T03:54:15.608Z,4.10
2018-09-21T03:55:15.534Z,4.20
2018-09-21T03:56:15.488Z,4.00
2018-09-21T03:57:15.457Z,4.10
2018-09-21T03:58:15.417Z,4.30
2018-09-21T03:59:15.373Z,4.20
2018-09-21T04:00:15.299Z,4.40
2018-09-21T04:01:15.382Z,4.40
2018-09-21T04:02:15.209Z,4.20
2018-09-21T04:03:15.159Z,4.30
2018-09-21T04:04:15.131Z,4.40
2018-09-21T04:05:15.065Z,4.20
2018-09-21T04:06:15.053Z,3.80
2018-09-21T04:07:14.985Z,4.00
2018-09-21T04:08:14.920Z,4.00
2018-09-21T04:09:14.910Z,3.80
2018-09-21T04:10:14.829Z,4.00
2018-09-21T04:11:14.812Z,4.00
2018-09-21T04:12:14.733Z,4.30
2018-09-21T04:13:14.687Z,4.30
2018-09-21T04:14:14.665Z,3.60
2018-09-21T04:15:14.591Z,4.00
2018-09-21T04:16:14.547Z,3.80
2018-09-21T04:17:14.503Z,3.90
2018-09-21T04:18:14.459Z,3.60
2018-09-21T04:19:14.435Z,4.10
2018-09-21T04:20:14.359Z,3.70
2018-09-21T04:21:14.318Z,3.90
2018-09-21T04:22:14.269Z,3.70
2018-09-21T04:23:14.296Z,3.80
2018-09-21T04:24:14.205Z,4.10
2018-09-21T04:25:14.133Z,4.20
2018-09-21T04:26:14.080Z,3.70
2018-09-21T04:27:14.028Z,4.10
2018-09-21T04:28:13.983Z,4.00
2018-09-21T04:29:13.977Z,3.80
2018-09-21T04:30:13.887Z,4.10
2018-09-21T04:31:13.837Z,3.50
2018-09-21T04:32:13.793Z,4.00
2018-09-21T04:33:13.746Z,3.80
2018-09-21T04:34:13.725Z,4.00
2018-09-21T04:35:13.651Z,3.90
2018-09-21T04:36:13.724Z,3.80
2018-09-21T04:37:13.559Z,3.80
2018-09-21T04:38:13.511Z,4.20
2018-09-21T04:39:13.490Z,3.80
2018-09-21T04:40:13.415Z,4.00
2018-09-21T04:41:13.388Z,3.60
2018-09-21T04:42:13.321Z,4.10
2018-09-21T04:43:13.276Z,3.80
2018-09-21T04:44:13.253Z,3.60
2018-09-21T04:45:13.181Z,3.90
2018-09-21T04:46:13.133Z,3.80
2018-09-21T04:47:13.088Z,4.30
2018-09-21T04:48:13.039Z,4.10
2018-09-21T04:49:13.013Z,4.10
2018-09-21T04:50:12.946Z,4.20
2018-09-21T04:51:12.899Z,4.00
2018-09-21T04:52:12.852Z,3.90
2018-09-21T04:53:12.814Z,4.10
2018-09-21T04:54:12.780Z,4.10
2018-09-21T04:55:12.712Z,3.90
2018-09-21T04:56:12.663Z,4.10
2018-09-21T04:57:12.613Z,3.80
2018-09-21T04:58:12.569Z,4.00
2018-09-21T04:59:12.546Z,4.20
2018-09-21T05:00:12.482Z,4.00
2018-09-21T05:01:12.426Z,4.10
2018-09-21T05:02:12.383Z,4.10
2018-09-21T05:03:12.336Z,4.20
2018-09-21T05:04:12.311Z,4.40
2018-09-21T05:05:12.240Z,4.10
2018-09-21T05:06:12.192Z,4.50
2018-09-21T05:07:12.170Z,4.30
2018-09-21T05:08:12.104Z,4.10
2018-09-21T05:09:12.080Z,4.50
2018-09-21T05:10:12.003Z,4.20
2018-09-21T05:11:11.974Z,4.40
2018-09-21T05:12:11.912Z,4.10
2018-09-21T05:13:11.873Z,4.00
2018-09-21T05:14:11.845Z,3.90
2018-09-21T05:15:11.772Z,3.90
2018-09-21T05:16:11.727Z,3.80
2018-09-21T05:17:11.706Z,3.80
2018-09-21T05:18:11.630Z,3.60
2018-09-21T05:19:11.631Z,3.90
2018-09-21T05:20:11.551Z,3.50
2018-09-21T05:21:11.496Z,3.50
2018-09-21T05:22:11.456Z,3.60
2018-09-21T05:23:11.400Z,3.90
2018-09-21T05:24:11.390Z,3.70
2018-09-21T05:25:11.302Z,3.80
2018-09-21T05:26:11.263Z,3.60
2018-09-21T05:27:11.206Z,3.50
2018-09-21T05:28:11.160Z,3.30
2018-09-21T05:29:11.119Z,3.30
2018-09-21T05:30:11.098Z,3.70
2018-09-21T05:31:11.019Z,3.40
2018-09-21T05:32:10.977Z,3.40
2018-09-21T05:33:10.933Z,3.40
2018-09-21T05:34:10.939Z,3.60
2018-09-21T05:35:10.968Z,3.50
2018-09-21T05:36:10.803Z,3.40
2018-09-21T05:37:10.749Z,3.70
2018-09-21T05:38:10.703Z,3.60
2018-09-21T05:39:10.649Z,3.30
2018-09-21T05:40:10.627Z,3.40
2018-09-21T05:41:10.557Z,3.40
2018-09-21T05:42:10.506Z,3.10
2018-09-21T05:43:10.458Z,3.10
2018-09-21T05:44:10.415Z,3.20
2018-09-21T05:45:10.392Z,3.20
2018-09-21T05:46:10.317Z,3.20
2018-09-21T05:47:10.294Z,3.30
2018-09-21T05:48:10.233Z,3.30
2018-09-21T05:49:10.178Z,3.00
2018-09-21T05:50:10.172Z,3.20
2018-09-21T05:51:10.088Z,3.10
2018-09-21T05:52:10.050Z,2.80
2018-09-21T05:53:09.999Z,2.90
2018-09-21T05:54:09.957Z,3.10
2018-09-21T05:55:09.937Z,3.20
2018-09-21T05:56:09.878Z,2.80
2018-09-21T05:57:09.818Z,3.00
2018-09-21T05:58:09.763Z,3.20
2018-09-21T05:59:09.720Z,3.00
2018-09-21T06:00:09.717Z,3.30
2018-09-21T06:01:09.627Z,3.20
2018-09-21T06:02:09.668Z,3.10
2018-09-21T06:03:09.532Z,3.20
2018-09-21T06:04:09.487Z,3.00
2018-09-21T06:05:09.472Z,3.00
2018-09-21T06:06:09.397Z,3.00
2018-09-21T06:07:09.350Z,3.20
2018-09-21T06:08:09.343Z,3.20
2018-09-21T06:09:09.255Z,3.20
2018-09-21T06:10:09.242Z,3.00
2018-09-21T06:11:09.167Z,2.80
2018-09-21T06:12:09.118Z,3.10
2018-09-21T06:13:09.070Z,3.20
2018-09-21T06:14:09.084Z,3.20
2018-09-21T06:15:09.005Z,3.00
2018-09-21T06:16:08.935Z,3.00
2018-09-21T06:17:08.887Z,2.80
2018-09-21T06:18:08.834Z,3.40
2018-09-21T06:19:08.794Z,3.30
2018-09-21T06:20:12.185Z,3.30
2018-09-21T06:21:08.715Z,3.10
2018-09-21T06:22:08.667Z,3.10
2018-09-21T06:23:08.611Z,3.10
2018-09-21T06:24:08.564Z,3.10
2018-09-21T06:25:08.542Z,3.00
2018-09-21T06:26:08.492Z,3.10
2018-09-21T06:27:08.422Z,3.10
2018-09-21T06:28:08.376Z,3.00
2018-09-21T06:29:08.336Z,3.00
2018-09-21T06:30:08.317Z,3.10
2018-09-21T06:31:08.247Z,3.20
2018-09-21T06:32:08.194Z,2.80
2018-09-21T06:33:08.154Z,3.00
2018-09-21T06:34:08.101Z,3.00
2018-09-21T06:35:08.073Z,3.40
2018-09-21T06:36:08.011Z,3.10
2018-09-21T06:37:07.962Z,3.00
2018-09-21T06:38:07.914Z,3.10
2018-09-21T06:39:07.869Z,3.30
2018-09-21T06:40:07.860Z,3.00
2018-09-21T06:41:07.813Z,3.30
2018-09-21T06:42:07.738Z,3.00
2018-09-21T06:43:07.688Z,3.40
2018-09-21T06:44:07.644Z,3.10
2018-09-21T06:45:07.601Z,3.40
2018-09-21T06:46:07.569Z,3.40
2018-09-21T06:47:07.498Z,3.40
2018-09-21T06:48:07.459Z,3.70
2018-09-21T06:49:07.412Z,3.50
2018-09-21T06:50:07.362Z,3.30
2018-09-21T06:51:07.344Z,3.40
2018-09-21T06:52:07.271Z,3.10
2018-09-21T06:53:07.226Z,3.60
2018-09-21T06:54:07.181Z,3.20
2018-09-21T06:55:07.138Z,3.00
2018-09-21T06:56:07.112Z,3.30
2018-09-21T06:57:07.045Z,3.20
2018-09-21T06:58:06.999Z,3.00
2018-09-21T06:59:06.955Z,3.10
2018-09-21T07:00:06.907Z,3.50
2018-09-21T07:01:06.882Z,3.00
2018-09-21T07:02:06.929Z,3.60
2018-09-21T07:03:06.766Z,3.70
2018-09-21T07:04:06.720Z,3.10
2018-09-21T07:05:06.687Z,3.20
2018-09-21T07:06:06.651Z,3.10
2018-09-21T07:07:06.581Z,3.10
2018-09-21T07:08:06.537Z,3.80
2018-09-21T07:09:06.493Z,3.40
2018-09-21T07:10:06.603Z,3.30
2018-09-21T07:11:06.424Z,3.20
2018-09-21T07:12:06.361Z,3.40
2018-09-21T07:13:06.313Z,3.30
2018-09-21T07:14:06.260Z,3.60
2018-09-21T07:15:06.220Z,3.30
2018-09-21T07:16:06.198Z,3.50
2018-09-21T07:17:06.133Z,3.30
2018-09-21T07:18:06.076Z,3.10
2018-09-21T07:19:06.029Z,3.50
2018-09-21T07:20:05.988Z,3.00
2018-09-21T07:21:05.964Z,3.40
2018-09-21T07:22:05.897Z,3.70
2018-09-21T07:23:05.852Z,3.30
2018-09-21T07:24:05.808Z,3.20
2018-09-21T07:25:05.762Z,3.20
2018-09-21T07:26:05.745Z,3.40
2018-09-21T07:27:05.671Z,3.00
2018-09-21T07:28:05.628Z,3.00
2018-09-21T07:29:05.582Z,3.10
2018-09-21T07:30:05.530Z,3.40
2018-09-21T07:31:05.551Z,3.40
2018-09-21T07:32:05.441Z,3.50
2018-09-21T07:33:05.395Z,3.00
2018-09-21T07:34:05.350Z,3.10
2018-09-21T07:35:05.301Z,3.10
2018-09-21T07:36:05.289Z,3.00
2018-09-21T07:37:05.211Z,3.00
2018-09-21T07:38:05.168Z,3.30
2018-09-21T07:39:05.119Z,3.20
2018-09-21T07:40:05.091Z,2.90
2018-09-21T07:41:05.104Z,3.00
2018-09-21T07:42:04.988Z,3.10
2018-09-21T07:43:04.974Z,3.30
2018-09-21T07:44:04.894Z,3.10
2018-09-21T07:45:04.856Z,3.20
2018-09-21T07:46:04.828Z,2.80
2018-09-21T07:47:04.757Z,3.00
2018-09-21T07:48:04.735Z,3.00
2018-09-21T07:49:04.759Z,3.00
2018-09-21T07:50:04.626Z,3.10
2018-09-21T07:51:04.609Z,2.80
2018-09-21T07:52:04.533Z,3.10
2018-09-21T07:53:04.488Z,3.00
2018-09-21T07:54:04.451Z,2.80
2018-09-21T07:55:04.400Z,2.90
2018-09-21T07:56:04.375Z,2.90
2018-09-21T07:57:04.313Z,2.90
2018-09-21T07:58:04.258Z,2.90
2018-09-21T07:59:04.218Z,3.30
2018-09-21T08:00:04.176Z,2.90
2018-09-21T08:01:04.149Z,2.80
2018-09-21T08:02:04.108Z,2.80
2018-09-21T08:03:04.034Z,2.80
2018-09-21T08:04:03.990Z,2.70
2018-09-21T08:05:03.959Z,2.70
2018-09-21T08:06:03.924Z,2.90
2018-09-21T08:07:03.856Z,2.90
2018-09-21T08:08:03.806Z,3.20
2018-09-21T08:09:03.763Z,3.00
2018-09-21T08:10:03.720Z,3.40
2018-09-21T08:11:03.671Z,2.80
2018-09-21T08:12:03.658Z,2.80
2018-09-21T08:13:03.582Z,2.90
2018-09-21T08:14:03.530Z,2.70
2018-09-21T08:15:03.499Z,3.20
2018-09-21T08:16:03.444Z,3.00
2018-09-21T08:17:03.426Z,3.00
2018-09-21T08:18:03.354Z,2.80
2018-09-21T08:19:03.310Z,2.80
2018-09-21T08:20:03.261Z,2.70
2018-09-21T08:21:03.219Z,2.60
2018-09-21T08:22:03.198Z,2.80
2018-09-21T08:23:03.129Z,2.60
2018-09-21T08:24:03.080Z,3.10
2018-09-21T08:25:03.081Z,2.50
2018-09-21T08:26:02.993Z,3.00
2018-09-21T08:27:02.966Z,2.80
2018-09-21T08:28:02.913Z,2.80
2018-09-21T08:29:02.862Z,2.90
2018-09-21T08:30:02.811Z,2.80
2018-09-21T08:31:02.767Z,2.70
2018-09-21T08:32:02.759Z,2.90
2018-09-21T08:33:02.726Z,2.60
2018-09-21T08:34:02.649Z,2.80
2018-09-21T08:35:02.587Z,2.70
2018-09-21T08:36:02.562Z,2.90
2018-09-21T08:37:02.562Z,2.90
2018-09-21T08:38:02.493Z,3.00
2018-09-21T08:39:02.439Z,3.10
2018-09-21T08:40:02.380Z,2.80
2018-09-21T08:41:02.330Z,2.70
2018-09-21T08:42:02.374Z,2.60
2018-09-21T08:43:02.223Z,2.80
2018-09-21T08:44:02.181Z,3.00
2018-09-21T08:45:02.142Z,2.50
2018-09-21T08:46:02.090Z,2.50
2018-09-21T08:47:02.070Z,2.60
2018-09-21T08:48:01.994Z,2.60
2018-09-21T08:49:01.997Z,2.40
2018-09-21T08:50:01.908Z,2.60
2018-09-21T08:51:01.861Z,2.50
2018-09-21T08:52:01.945Z,2.40
2018-09-21T08:53:01.778Z,2.40
2018-09-21T08:54:01.720Z,2.30
2018-09-21T08:55:01.703Z,2.50
2018-09-21T08:56:01.644Z,2.60
2018-09-21T08:57:01.616Z,2.60
2018-09-21T08:58:01.543Z,2.50
2018-09-21T08:59:01.501Z,2.60
2018-09-21T09:00:01.456Z,2.40
2018-09-21T09:01:01.419Z,2.30
2018-09-21T09:02:01.398Z,2.20
2018-09-21T09:03:01.413Z,2.40
2018-09-21T09:04:01.476Z,2.30
2018-09-21T09:05:01.238Z,2.50
2018-09-21T09:06:01.182Z,2.10
2018-09-21T09:07:01.207Z,2.30
2018-09-21T09:08:01.113Z,2.60
2018-09-21T09:09:01.045Z,2.20
2018-09-21T09:10:01.003Z,2.10
2018-09-21T09:11:00.956Z,2.20
2018-09-21T09:12:00.958Z,2.40
2018-09-21T09:13:00.861Z,2.10
2018-09-21T09:14:00.825Z,2.40
2018-09-21T09:15:00.784Z,2.10
2018-09-21T09:16:00.725Z,2.20
2018-09-21T09:17:00.721Z,2.10
2018-09-21T09:18:00.641Z,2.10
2018-09-21T09:19:00.595Z,2.20
2018-09-21T09:20:00.963Z,2.30
2018-09-21T09:21:00.505Z,2.10
2018-09-21T09:22:00.480Z,2.10
2018-09-21T09:23:00.450Z,2.00
2018-09-21T09:24:00.534Z,2.20
2018-09-21T09:25:00.349Z,2.20
2018-09-21T09:26:00.299Z,2.00
2018-09-21T09:27:00.260Z,2.10
2018-09-21T09:28:00.179Z,2.20
2018-09-21T09:29:00.137Z,2.20
2018-09-21T09:30:00.144Z,2.10
2018-09-21T09:31:00.044Z,2.30
2018-09-21T09:32:00.019Z,2.00
2018-09-21T09:32:59.962Z,2.10
2018-09-21T09:33:59.909Z,2.20
2018-09-21T09:34:59.942Z,2.10
2018-09-21T09:35:59.819Z,2.20
2018-09-21T09:36:59.872Z,2.10
2018-09-21T09:37:59.722Z,1.90
2018-09-21T09:38:59.676Z,2.00
2018-09-21T09:39:59.631Z,2.10
2018-09-21T09:40:59.586Z,2.30
2018-09-21T09:41:59.548Z,1.90
2018-09-21T09:42:59.587Z,2.00
2018-09-21T09:43:59.443Z,2.30
2018-09-21T09:44:59.402Z,2.30
2018-09-21T09:45:59.353Z,2.20
2018-09-21T09:46:59.309Z,2.20
2018-09-21T09:47:59.285Z,2.60
2018-09-21T09:48:59.305Z,2.50
2018-09-21T09:49:59.164Z,2.40
2018-09-21T09:50:59.121Z,2.50
2018-09-21T09:51:59.073Z,2.70
2018-09-21T09:52:59.051Z,2.50
2018-09-21T09:53:58.985Z,2.60
2018-09-21T09:54:58.949Z,2.70
2018-09-21T09:55:58.887Z,2.50
2018-09-21T09:56:58.836Z,2.60
2018-09-21T09:57:58.815Z,2.80
2018-09-21T09:58:58.750Z,2.80
2018-09-21T09:59:58.701Z,3.00
2018-09-21T10:00:58.647Z,3.00
2018-09-21T10:01:58.612Z,3.10
2018-09-21T10:02:58.581Z,3.20
2018-09-21T10:03:58.537Z,3.10
2018-09-21T10:04:58.460Z,2.70
2018-09-21T10:05:58.410Z,2.80
2018-09-21T10:06:58.367Z,3.40
2018-09-21T10:07:58.346Z,2.80
2018-09-21T10:08:58.274Z,3.00
2018-09-21T10:09:58.220Z,2.60
2018-09-21T10:10:58.187Z,1.80
2018-09-21T10:11:58.135Z,1.70
2018-09-21T10:12:58.115Z,1.80
2018-09-21T10:13:58.033Z,1.60
2018-09-21T10:14:57.983Z,1.70
2018-09-21T10:15:57.933Z,1.70
2018-09-21T10:16:57.888Z,1.60
2018-09-21T10:17:57.865Z,1.80
2018-09-21T10:18:57.791Z,1.70
2018-09-21T10:19:57.766Z,1.80
2018-09-21T10:20:57.693Z,1.60
2018-09-21T10:21:57.645Z,1.60
2018-09-21T10:22:57.626Z,1.80
2018-09-21T10:23:57.562Z,1.50
2018-09-21T10:24:57.514Z,1.80
2018-09-21T10:25:57.450Z,1.70
2018-09-21T10:26:57.551Z,1.60
2018-09-21T10:27:57.636Z,1.70
2018-09-21T10:28:57.307Z,1.40
2018-09-21T10:29:57.270Z,1.80
2018-09-21T10:30:57.222Z,1.80
2018-09-21T10:31:57.186Z,2.10
2018-09-21T10:32:57.132Z,1.80
2018-09-21T10:33:57.070Z,1.70
2018-09-21T10:34:57.027Z,1.90
2018-09-21T10:35:56.985Z,1.90
2018-09-21T10:36:56.933Z,1.70
2018-09-21T10:37:56.886Z,1.70
2018-09-21T10:38:56.864Z,2.20
2018-09-21T10:39:56.822Z,1.70
2018-09-21T10:40:56.717Z,2.00
2018-09-21T10:41:56.719Z,1.80
2018-09-21T10:42:56.662Z,1.90
2018-09-21T10:43:56.576Z,2.00
2018-09-21T10:44:56.525Z,2.20
2018-09-21T10:45:56.485Z,2.20
2018-09-21T10:46:56.422Z,2.20
2018-09-21T10:47:56.405Z,2.20
2018-09-21T10:48:56.326Z,2.00
2018-09-21T10:49:56.283Z,1.80
2018-09-21T10:50:56.228Z,1.90
2018-09-21T10:51:56.176Z,1.70
2018-09-21T10:52:56.169Z,1.60
2018-09-21T10:53:56.076Z,1.90
2018-09-21T10:54:56.047Z,1.90
2018-09-21T10:55:55.987Z,2.30
2018-09-21T10:56:56.030Z,1.90
2018-09-21T10:57:55.911Z,1.80
2018-09-21T10:58:55.837Z,1.90
2018-09-21T10:59:55.787Z,2.20
2018-09-21T11:00:55.746Z,2.20
2018-09-21T11:01:55.687Z,1.90
2018-09-21T11:02:55.685Z,1.80
2018-09-21T11:03:55.607Z,1.70
2018-09-21T11:04:55.541Z,1.80
2018-09-21T11:05:55.493Z,2.00
2018-09-21T11:06:55.456Z,2.00
2018-09-21T11:07:55.424Z,1.80
2018-09-21T11:08:55.343Z,2.20
2018-09-21T11:09:55.297Z,2.20
2018-09-21T11:10:55.244Z,1.90
2018-09-21T11:11:55.195Z,2.00
2018-09-21T11:12:55.180Z,2.10
2018-09-21T11:13:55.153Z,1.60
2018-09-21T11:14:55.045Z,1.50
2018-09-21T11:15:55.000Z,1.60
2018-09-21T11:16:54.960Z,1.80
2018-09-21T11:17:54.913Z,2.10
2018-09-21T11:18:54.889Z,1.60
2018-09-21T11:19:54.800Z,1.70
2018-09-21T11:20:54.753Z,1.80
2018-09-21T11:21:54.705Z,1.50
2018-09-21T11:22:54.667Z,1.60
2018-09-21T11:23:54.644Z,1.70
2018-09-21T11:24:54.557Z,1.70
2018-09-21T11:25:54.511Z,1.20
2018-09-21T11:26:54.466Z,1.40
2018-09-21T11:27:54.410Z,1.20
2018-09-21T11:28:54.387Z,1.30
2018-09-21T11:29:54.317Z,1.30
2018-09-21T11:30:54.272Z,1.50
2018-09-21T11:31:54.214Z,1.30
2018-09-21T11:32:54.229Z,1.40
2018-09-21T11:33:54.140Z,1.40
2018-09-21T11:34:54.111Z,1.40
2018-09-21T11:35:54.045Z,1.40
2018-09-21T11:36:53.968Z,1.10
2018-09-21T11:37:53.923Z,1.40
2018-09-21T11:38:53.905Z,1.40
2018-09-21T11:39:53.833Z,1.30
2018-09-21T11:40:53.782Z,1.40
2018-09-21T11:41:53.743Z,1.20
2018-09-21T11:42:53.680Z,1.50
2018-09-21T11:43:53.682Z,1.30
2018-09-21T11:44:53.586Z,1.10
2018-09-21T11:45:53.529Z,1.20
2018-09-21T11:46:53.630Z,1.30
2018-09-21T11:47:53.433Z,1.40
2018-09-21T11:48:53.411Z,1.30
2018-09-21T11:49:53.327Z,1.10
2018-09-21T11:50:53.288Z,1.20
2018-09-21T11:51:53.241Z,1.20
2018-09-21T11:52:53.207Z,1.40
2018-09-21T11:53:53.207Z,1.20
2018-09-21T11:54:53.085Z,1.40
2018-09-21T11:55:53.048Z,1.70
2018-09-21T11:56:53.004Z,1.50
2018-09-21T11:57:52.952Z,1.50
2018-09-21T11:58:52.931Z,1.30
2018-09-21T11:59:52.870Z,1.60
2018-09-21T12:00:52.792Z,1.20
2018-09-21T12:01:52.774Z,1.40
2018-09-21T12:02:52.695Z,1.60
2018-09-21T12:03:52.682Z,1.50
2018-09-21T12:04:52.615Z,1.50
2018-09-21T12:05:52.551Z,1.30
2018-09-21T12:06:52.505Z,1.20
2018-09-21T12:07:52.457Z,1.70
2018-09-21T12:08:52.461Z,1.70
2018-09-21T12:09:52.351Z,1.50
2018-09-21T12:10:52.348Z,1.50
2018-09-21T12:11:52.308Z,1.40
2018-09-21T12:12:52.228Z,1.90
2018-09-21T12:13:52.286Z,1.40
2018-09-21T12:14:52.132Z,1.60
2018-09-21T12:15:52.090Z,1.60
2018-09-21T12:16:52.049Z,1.60
2018-09-21T12:17:51.986Z,1.60
2018-09-21T12:18:51.940Z,1.60
2018-09-21T12:19:51.875Z,1.90
2018-09-21T12:20:51.825Z,1.50
2018-09-21T12:21:51.778Z,1.60
2018-09-21T12:22:51.756Z,1.50
2018-09-21T12:23:51.706Z,1.50
2018-09-21T12:24:51.629Z,1.50
2018-09-21T12:25:51.571Z,1.70
2018-09-21T12:26:51.529Z,1.70
2018-09-21T12:27:51.474Z,1.70
2018-09-21T12:28:51.464Z,1.90
2018-09-21T12:29:51.391Z,1.60
2018-09-21T12:30:51.346Z,1.50
2018-09-21T12:31:51.288Z,1.50
2018-09-21T12:32:51.233Z,1.80
2018-09-21T12:33:51.215Z,1.90
2018-09-21T12:34:51.132Z,2.10
2018-09-21T12:35:51.103Z,1.80
2018-09-21T12:36:51.050Z,1.80
2018-09-21T12:37:50.989Z,1.90
2018-09-21T12:38:50.972Z,2.20
2018-09-21T12:39:50.887Z,1.90
2018-09-21T12:40:50.869Z,1.90
2018-09-21T12:41:50.796Z,2.00
2018-09-21T12:42:50.736Z,2.00
2018-09-21T12:43:50.691Z,2.10
2018-09-21T12:44:50.691Z,2.00
2018-09-21T12:45:50.610Z,2.10
2018-09-21T12:46:51.758Z,2.30
2018-09-21T12:47:50.520Z,2.30
2018-09-21T12:48:50.450Z,2.60
2018-09-21T12:49:50.437Z,2.60
2018-09-21T12:50:50.385Z,2.50
2018-09-21T12:51:50.305Z,2.80
2018-09-21T12:52:50.261Z,2.70
2018-09-21T12:53:50.219Z,3.10
2018-09-21T12:54:50.213Z,2.90
2018-09-21T12:55:50.123Z,3.40
2018-09-21T12:56:50.068Z,3.10
2018-09-21T12:57:50.048Z,2.90
2018-09-21T12:58:50.046Z,3.00
2018-09-21T12:59:49.934Z,3.30
2018-09-21T13:00:49.861Z,3.00
2018-09-21T13:01:49.828Z,2.80
2018-09-21T13:02:49.766Z,2.90
2018-09-21T13:03:49.721Z,3.20
2018-09-21T13:04:49.698Z,3.40
2018-09-21T13:05:49.619Z,3.00
2018-09-21T13:06:49.571Z,3.00
2018-09-21T13:07:49.528Z,2.90
2018-09-21T13:08:49.474Z,3.10
2018-09-21T13:09:49.447Z,3.10
2018-09-21T13:10:49.408Z,3.00
2018-09-21T13:11:49.324Z,3.30
2018-09-21T13:12:49.276Z,2.70
2018-09-21T13:13:49.241Z,2.80
2018-09-21T13:14:49.210Z,3.30
2018-09-21T13:15:49.128Z,2.90
2018-09-21T13:16:49.088Z,2.90
2018-09-21T13:17:49.043Z,3.60